KLNP

Lonesome Pine Airport

Wise, Virginia, USA
METAR KLNP 150315Z AUTO 20003KT 10SM CLR 19/16 A3017 RMK AO2
Observed Flight Rules
Aug-15 @ 03:15 UTC (20 minutes ago) Visual Flight Rules
Wind Visibility Clouds
200° at 3 knots 10 miles
  • Clear skies
Temperatures Readings
Current 19°C / 66°F
Dewpoint 16°C / 61°F
Humidity 83%
Altimeter 30.17" Hg
Pressure 1022 hPa
Elevation 817
METAR KLNP 150315Z AUTO 20003KT 10SM CLR 19/16 A3017 RMK AO2
Observed Flight Rules
Aug-15 @ 03:15 UTC
(20 minutes ago)
VFR
Wind Visibility
200° at 3 knots 10 miles
Clouds
  • Clear skies
Temperature Dewpoint
19°C / 66°F 16°C / 61°F
Humidity Altimeter Pressure
83% 30.17" Hg 1022 hPa